createdAt,value
2023-04-15T00:01:12.563Z,5.00
2023-04-15T00:03:44.390Z,4.60
2023-04-15T00:06:13.614Z,5.10
2023-04-15T00:08:42.788Z,4.50
2023-04-15T00:11:11.267Z,5.10
2023-04-15T00:13:41.148Z,4.20
2023-04-15T00:16:11.037Z,4.40
2023-04-15T00:18:39.373Z,4.50
2023-04-15T00:21:08.372Z,5.30
2023-04-15T00:23:37.769Z,4.70
2023-04-15T00:26:06.177Z,4.90
2023-04-15T00:28:34.829Z,4.50
2023-04-15T00:31:04.679Z,4.60
2023-04-15T00:33:33.036Z,5.00
2023-04-15T00:36:01.885Z,4.70
2023-04-15T00:38:30.085Z,4.80
2023-04-15T00:40:58.778Z,4.70
2023-04-15T00:43:27.924Z,4.80
2023-04-15T00:45:59.642Z,4.40
2023-04-15T00:48:29.259Z,4.40
2023-04-15T00:50:58.342Z,4.00
2023-04-15T00:53:26.567Z,5.30
2023-04-15T00:55:56.150Z,4.80
2023-04-15T00:58:24.829Z,5.50
2023-04-15T01:00:56.570Z,4.50
2023-04-15T01:03:25.727Z,5.80
2023-04-15T01:05:58.413Z,4.90
2023-04-15T01:08:31.127Z,4.90
2023-04-15T01:11:05.852Z,4.70
2023-04-15T01:13:35.300Z,4.80
2023-04-15T01:16:04.275Z,4.60
2023-04-15T01:18:33.757Z,5.40
2023-04-15T01:21:05.206Z,4.70
2023-04-15T01:23:40.546Z,4.90
2023-04-15T01:26:09.887Z,4.80
2023-04-15T01:28:38.742Z,5.20
2023-04-15T01:31:15.421Z,4.70
2023-04-15T01:33:44.093Z,4.70
2023-04-15T01:36:12.576Z,5.20
2023-04-15T01:38:41.463Z,4.50
2023-04-15T01:41:10.274Z,5.20
2023-04-15T01:43:38.428Z,4.30
2023-04-15T01:46:07.326Z,4.50
2023-04-15T01:48:36.135Z,5.60
2023-04-15T01:51:05.206Z,6.30
2023-04-15T01:53:34.523Z,4.90
2023-04-15T01:56:04.914Z,4.40
2023-04-15T01:58:33.979Z,4.60
2023-04-15T02:01:03.263Z,4.70
2023-04-15T02:03:33.240Z,5.20
2023-04-15T02:06:01.562Z,5.40
2023-04-15T02:08:31.062Z,4.70
2023-04-15T02:11:01.790Z,4.90
2023-04-15T02:13:31.271Z,5.00
2023-04-15T02:16:00.076Z,4.60
2023-04-15T02:18:28.858Z,5.60
2023-04-15T02:20:59.815Z,4.40
2023-04-15T02:23:28.441Z,5.00
2023-04-15T02:25:57.580Z,5.30
2023-04-15T02:28:25.752Z,6.10
2023-04-15T02:30:56.533Z,4.40
2023-04-15T02:33:25.513Z,4.80
2023-04-15T02:35:53.831Z,4.60
2023-04-15T02:38:24.518Z,4.90
2023-04-15T02:40:53.487Z,4.30
2023-04-15T02:43:23.296Z,4.70
2023-04-15T02:45:52.772Z,4.80
2023-04-15T02:48:22.201Z,4.30
2023-04-15T02:50:52.001Z,4.60
2023-04-15T02:53:22.342Z,4.70
2023-04-15T02:55:51.844Z,4.70
2023-04-15T02:58:19.856Z,5.00
2023-04-15T03:00:48.406Z,4.20
2023-04-15T03:03:17.228Z,4.70
2023-04-15T03:05:45.457Z,4.50
2023-04-15T03:08:15.381Z,6.30
2023-04-15T03:10:44.286Z,4.80
2023-04-15T03:13:14.732Z,4.90
2023-04-15T03:15:43.517Z,5.10
2023-04-15T03:18:12.263Z,5.40
2023-04-15T03:20:42.276Z,5.20
2023-04-15T03:23:10.772Z,5.60
2023-04-15T03:25:39.254Z,4.60
2023-04-15T03:28:08.580Z,4.50
2023-04-15T03:30:36.735Z,5.30
2023-04-15T03:33:05.085Z,5.80
2023-04-15T03:35:35.329Z,4.60
2023-04-15T03:38:03.400Z,5.10
2023-04-15T03:40:31.780Z,4.80
2023-04-15T03:43:00.777Z,4.90
2023-04-15T03:45:29.459Z,4.50
2023-04-15T03:48:03.588Z,4.90
2023-04-15T03:50:41.175Z,5.30
2023-04-15T03:53:10.234Z,4.50
2023-04-15T03:55:38.570Z,4.60
2023-04-15T03:58:06.826Z,4.40
2023-04-15T04:00:35.201Z,5.40
2023-04-15T04:03:04.142Z,5.30
2023-04-15T04:05:33.632Z,5.30
2023-04-15T04:08:02.074Z,4.60
2023-04-15T04:10:30.146Z,5.20
2023-04-15T04:13:02.179Z,5.10
2023-04-15T04:15:31.990Z,5.10
2023-04-15T04:18:04.282Z,5.10
2023-04-15T04:20:33.711Z,4.50
2023-04-15T04:23:03.706Z,5.10
2023-04-15T04:25:32.411Z,4.60
2023-04-15T04:28:03.119Z,6.00
2023-04-15T04:30:31.516Z,5.30
2023-04-15T04:32:59.942Z,4.60
2023-04-15T04:35:28.070Z,4.70
2023-04-15T04:37:56.759Z,5.60
2023-04-15T04:40:25.145Z,4.90
2023-04-15T04:42:55.762Z,4.70
2023-04-15T04:45:24.155Z,5.00
2023-04-15T04:47:52.361Z,5.00
2023-04-15T04:50:21.423Z,4.60
2023-04-15T04:52:50.834Z,4.70
2023-04-15T04:55:20.025Z,6.00
2023-04-15T04:57:54.853Z,4.90
2023-04-15T05:00:25.808Z,5.10
2023-04-15T05:02:55.822Z,5.30
2023-04-15T05:05:24.956Z,5.10
2023-04-15T05:07:54.040Z,4.70
2023-04-15T05:10:24.145Z,4.20
2023-04-15T05:12:53.103Z,3.70
2023-04-15T05:15:22.539Z,5.20
2023-04-15T05:17:52.438Z,5.00
2023-04-15T05:20:23.060Z,5.10
2023-04-15T05:22:52.154Z,4.70
2023-04-15T05:25:23.423Z,5.00
2023-04-15T05:27:52.877Z,5.40
2023-04-15T05:30:23.215Z,5.50
2023-04-15T05:32:52.184Z,5.10
2023-04-15T05:35:20.706Z,4.40
2023-04-15T05:37:49.500Z,6.10
2023-04-15T05:40:19.103Z,4.90
2023-04-15T05:42:47.668Z,4.60
2023-04-15T05:45:16.682Z,4.60
2023-04-15T05:47:48.167Z,5.00
2023-04-15T05:50:17.491Z,5.10
2023-04-15T05:52:48.250Z,4.40
2023-04-15T05:55:18.424Z,4.90
2023-04-15T05:57:49.203Z,5.00
2023-04-15T06:00:20.784Z,4.70
2023-04-15T06:02:54.854Z,5.10
2023-04-15T06:05:24.926Z,5.30
2023-04-15T06:07:53.717Z,4.90
2023-04-15T06:10:27.706Z,5.10
2023-04-15T06:13:02.869Z,4.40
2023-04-15T06:15:34.768Z,5.10
2023-04-15T06:18:06.673Z,5.00
2023-04-15T06:20:35.154Z,4.70
2023-04-15T06:23:05.690Z,5.00
2023-04-15T06:25:36.149Z,4.70
2023-04-15T06:28:07.945Z,5.10
2023-04-15T06:30:39.994Z,5.00
2023-04-15T06:33:10.991Z,4.20
2023-04-15T06:35:39.491Z,4.90
2023-04-15T06:38:08.055Z,4.70
2023-04-15T06:40:38.057Z,5.10
2023-04-15T06:43:08.415Z,4.90
2023-04-15T06:45:37.687Z,4.80
2023-04-15T06:48:06.759Z,5.00
2023-04-15T06:50:37.069Z,4.60
2023-04-15T06:53:08.740Z,4.90
2023-04-15T06:55:37.477Z,5.40
2023-04-15T06:58:07.181Z,5.20
2023-04-15T07:00:40.092Z,5.50
2023-04-15T07:03:11.735Z,5.70
2023-04-15T07:05:42.003Z,5.70
2023-04-15T07:08:11.568Z,5.70
2023-04-15T07:10:42.174Z,5.80
2023-04-15T07:13:13.783Z,6.10
2023-04-15T07:15:42.506Z,5.00
2023-04-15T07:18:12.355Z,7.00
2023-04-15T07:20:42.750Z,5.80
2023-04-15T07:23:12.454Z,10.30
2023-04-15T07:25:43.545Z,7.60
2023-04-15T07:28:16.333Z,7.40
2023-04-15T07:30:46.118Z,8.20
2023-04-15T07:33:17.088Z,14.30
2023-04-15T07:35:46.784Z,6.00
2023-04-15T07:38:19.906Z,7.20
2023-04-15T07:43:21.503Z,5.60
2023-04-15T07:45:50.378Z,7.70
2023-04-15T07:48:21.514Z,6.20
2023-04-15T07:50:51.761Z,7.30
2023-04-15T07:53:22.364Z,6.20
2023-04-15T07:55:52.947Z,7.00
2023-04-15T07:58:23.562Z,8.20
2023-04-15T08:00:52.750Z,5.50
2023-04-15T08:03:23.910Z,6.60
2023-04-15T08:05:54.233Z,7.40
2023-04-15T08:08:24.440Z,5.50
2023-04-15T08:10:56.998Z,5.80
2023-04-15T08:13:28.938Z,5.50
2023-04-15T08:16:25.136Z,5.80
2023-04-15T08:18:58.434Z,6.20
2023-04-15T08:21:27.934Z,6.80
2023-04-15T08:23:57.958Z,7.90
2023-04-15T08:26:28.134Z,5.00
2023-04-15T08:28:58.274Z,6.90
2023-04-15T08:31:30.326Z,6.50
2023-04-15T08:34:01.233Z,5.30
2023-04-15T08:36:31.850Z,4.50
2023-04-15T08:39:05.301Z,5.70
2023-04-15T08:41:52.198Z,5.50
2023-04-15T08:44:24.534Z,5.30
2023-04-15T08:47:19.975Z,5.90
2023-04-15T08:49:54.217Z,5.50
2023-04-15T08:52:23.029Z,7.80
2023-04-15T08:54:59.086Z,6.00
2023-04-15T08:57:31.571Z,5.00
2023-04-15T09:00:05.670Z,5.90
2023-04-15T09:02:36.202Z,6.40
2023-04-15T09:05:08.076Z,4.50
2023-04-15T09:07:37.602Z,6.00
2023-04-15T09:10:06.970Z,5.60
2023-04-15T09:12:37.402Z,5.50
2023-04-15T09:15:12.101Z,5.60
2023-04-15T09:17:45.235Z,5.10
2023-04-15T09:20:21.478Z,5.60
2023-04-15T09:22:52.232Z,5.90
2023-04-15T09:25:23.463Z,5.70
2023-04-15T09:28:00.766Z,5.30
2023-04-15T09:30:31.525Z,5.40
2023-04-15T09:33:08.985Z,5.10
2023-04-15T09:35:39.408Z,4.70
2023-04-15T09:38:11.719Z,6.00
2023-04-15T09:40:43.323Z,5.40
2023-04-15T09:43:13.966Z,5.70
2023-04-15T09:45:55.037Z,6.40
2023-04-15T09:48:32.238Z,6.40
2023-04-15T09:51:03.154Z,6.80
2023-04-15T09:53:36.750Z,6.30
2023-04-15T09:58:38.984Z,7.90
2023-04-15T10:01:09.397Z,6.70
2023-04-15T10:03:42.642Z,5.30
2023-04-15T10:06:11.745Z,5.70
2023-04-15T10:08:41.983Z,5.10
2023-04-15T10:11:12.790Z,5.70
2023-04-15T10:13:42.937Z,4.20
2023-04-15T10:16:16.018Z,5.30
2023-04-15T10:18:48.644Z,5.00
2023-04-15T10:21:19.708Z,5.30
2023-04-15T10:23:49.811Z,5.20
2023-04-15T10:26:19.702Z,6.20
2023-04-15T10:28:51.747Z,6.10
2023-04-15T10:31:22.869Z,6.80
2023-04-15T10:33:54.543Z,8.40
2023-04-15T10:36:23.438Z,6.90
2023-04-15T10:38:53.993Z,8.30
2023-04-15T10:41:27.950Z,7.20
2023-04-15T10:44:03.418Z,7.30
2023-04-15T10:46:46.267Z,6.90
2023-04-15T10:49:17.362Z,6.80
2023-04-15T10:51:52.423Z,9.00
2023-04-15T10:54:28.168Z,6.80
2023-04-15T10:57:03.245Z,10.30
2023-04-15T11:00:11.940Z,8.20
2023-04-15T11:02:47.365Z,9.30
2023-04-15T11:05:18.612Z,7.20
2023-04-15T11:07:49.770Z,9.00
2023-04-15T11:10:19.093Z,7.70
2023-04-15T11:13:16.633Z,8.40
2023-04-15T11:15:49.721Z,6.80
2023-04-15T11:18:21.622Z,8.10
2023-04-15T11:21:01.572Z,6.80
2023-04-15T11:23:37.840Z,7.60
2023-04-15T11:26:10.156Z,7.90
2023-04-15T11:28:48.328Z,6.00
2023-04-15T11:31:20.706Z,7.20
2023-04-15T11:33:59.571Z,6.80
2023-04-15T11:36:32.028Z,6.80
2023-04-15T11:39:01.065Z,7.20
2023-04-15T11:41:30.160Z,6.10
2023-04-15T11:43:59.251Z,6.90
2023-04-15T11:46:32.787Z,5.80
2023-04-15T11:49:04.878Z,5.30
2023-04-15T11:51:35.254Z,6.30
2023-04-15T11:54:07.803Z,5.70
2023-04-15T11:56:36.291Z,6.60
2023-04-15T11:59:05.081Z,6.00
2023-04-15T12:01:44.144Z,7.20
2023-04-15T12:04:23.332Z,7.30
2023-04-15T12:06:55.737Z,6.00
2023-04-15T12:09:23.979Z,5.70
2023-04-15T12:11:57.820Z,6.20
2023-04-15T12:14:33.351Z,4.70
2023-04-15T12:17:07.701Z,5.80
2023-04-15T12:19:39.270Z,5.90
2023-04-15T12:22:17.093Z,5.50
2023-04-15T12:24:49.874Z,5.50
2023-04-15T12:27:19.704Z,4.70
2023-04-15T12:29:49.045Z,5.00
2023-04-15T12:32:23.064Z,5.00
2023-04-15T12:34:55.404Z,4.70
2023-04-15T12:37:25.012Z,4.80
2023-04-15T12:39:56.325Z,4.90
2023-04-15T12:42:26.170Z,6.90
2023-04-15T12:44:55.353Z,4.90
2023-04-15T12:47:23.778Z,5.30
2023-04-15T12:49:52.532Z,4.30
2023-04-15T12:52:20.604Z,6.60
2023-04-15T12:54:49.920Z,4.90
2023-04-15T12:57:20.716Z,4.00
2023-04-15T12:59:51.180Z,4.50
2023-04-15T13:02:21.926Z,4.00
2023-04-15T13:04:52.080Z,5.70
2023-04-15T13:07:22.155Z,4.70
2023-04-15T13:09:51.779Z,4.80
2023-04-15T13:12:23.791Z,4.60
2023-04-15T13:14:54.352Z,4.10
2023-04-15T13:17:23.103Z,4.80
2023-04-15T13:19:53.150Z,4.00
2023-04-15T13:22:25.539Z,3.40
2023-04-15T13:24:54.326Z,2.80
2023-04-15T13:27:24.157Z,5.40
2023-04-15T13:29:53.230Z,3.70
2023-04-15T13:32:21.858Z,4.00
2023-04-15T13:34:56.651Z,3.40
2023-04-15T13:37:29.494Z,4.40
2023-04-15T13:40:01.807Z,3.70
2023-04-15T13:42:30.784Z,3.60
2023-04-15T13:44:59.462Z,3.30
2023-04-15T13:47:28.753Z,3.00
2023-04-15T13:49:58.573Z,3.90
2023-04-15T13:52:27.224Z,3.70
2023-04-15T13:55:10.308Z,3.40
2023-04-15T13:57:46.466Z,3.60
2023-04-15T14:00:16.675Z,4.00
2023-04-15T14:02:47.141Z,3.20
2023-04-15T14:05:16.220Z,2.90
2023-04-15T14:07:45.001Z,4.30
2023-04-15T14:10:14.104Z,3.40
2023-04-15T14:12:43.516Z,3.70
2023-04-15T14:15:14.928Z,3.00
2023-04-15T14:17:44.184Z,3.80
2023-04-15T14:20:13.995Z,3.90
2023-04-15T14:22:44.168Z,3.60
2023-04-15T14:25:23.138Z,3.00
2023-04-15T14:28:01.589Z,3.20
2023-04-15T14:30:31.242Z,3.70
2023-04-15T14:33:02.519Z,3.40
2023-04-15T14:35:31.359Z,3.90
2023-04-15T14:37:59.323Z,3.80
2023-04-15T14:40:29.616Z,3.40
2023-04-15T14:42:58.753Z,4.00
2023-04-15T14:45:27.944Z,4.10
2023-04-15T14:47:57.834Z,3.30
2023-04-15T14:50:26.998Z,3.30
2023-04-15T14:52:57.028Z,3.60
2023-04-15T14:55:26.402Z,3.20
2023-04-15T14:57:55.270Z,4.30
2023-04-15T15:00:23.548Z,3.80
2023-04-15T15:02:54.993Z,3.50
2023-04-15T15:05:23.348Z,3.40
2023-04-15T15:07:51.661Z,3.40
2023-04-15T15:10:34.792Z,3.90
2023-04-15T15:13:12.270Z,3.80
2023-04-15T15:15:41.587Z,3.70
2023-04-15T15:18:11.826Z,3.30
2023-04-15T15:20:42.475Z,3.70
2023-04-15T15:23:12.043Z,4.20
2023-04-15T15:25:41.673Z,3.10
2023-04-15T15:28:12.543Z,3.20
2023-04-15T15:30:41.374Z,3.20
2023-04-15T15:33:12.010Z,2.70
2023-04-15T15:35:42.960Z,3.30
2023-04-15T15:38:13.501Z,3.30
2023-04-15T15:40:43.848Z,3.40
2023-04-15T15:43:12.374Z,3.70
2023-04-15T15:45:42.199Z,4.50
2023-04-15T15:48:11.838Z,4.10
2023-04-15T15:50:41.523Z,3.30
2023-04-15T15:53:13.173Z,3.60
2023-04-15T15:55:42.363Z,3.20
2023-04-15T15:58:11.470Z,3.10
2023-04-15T16:00:42.322Z,3.40
2023-04-15T16:03:10.880Z,3.70
2023-04-15T16:05:41.102Z,2.70
2023-04-15T16:08:13.562Z,3.10
2023-04-15T16:10:44.362Z,3.20
2023-04-15T16:13:14.009Z,4.00
2023-04-15T16:15:44.351Z,3.90
2023-04-15T16:18:13.141Z,3.80
2023-04-15T16:20:41.921Z,3.90
2023-04-15T16:23:16.905Z,3.90
2023-04-15T16:25:46.953Z,3.60
2023-04-15T16:28:23.078Z,3.60
2023-04-15T16:30:57.667Z,3.20
2023-04-15T16:33:27.123Z,3.20
2023-04-15T16:35:55.555Z,4.10
2023-04-15T16:38:23.726Z,3.30
2023-04-15T16:40:51.692Z,4.40
2023-04-15T16:43:20.379Z,3.20
2023-04-15T16:45:51.536Z,3.40
2023-04-15T16:48:21.332Z,4.40
2023-04-15T16:50:49.623Z,4.20
2023-04-15T16:53:18.505Z,4.70
2023-04-15T16:55:47.922Z,3.30
2023-04-15T16:58:17.470Z,4.00
2023-04-15T17:00:46.103Z,3.90
2023-04-15T17:03:14.632Z,4.30
2023-04-15T17:05:47.004Z,4.00
2023-04-15T17:08:18.285Z,3.40
2023-04-15T17:10:49.020Z,3.40
2023-04-15T17:13:17.829Z,3.30
2023-04-15T17:15:48.359Z,3.30
2023-04-15T17:18:17.653Z,4.50
2023-04-15T17:20:46.659Z,3.90
2023-04-15T17:23:17.350Z,3.80
2023-04-15T17:25:48.327Z,4.00
2023-04-15T17:28:18.361Z,4.00
2023-04-15T17:30:47.648Z,3.00
2023-04-15T17:33:53.289Z,4.30
2023-04-15T17:36:09.388Z,3.20
2023-04-15T17:38:38.682Z,4.20
2023-04-15T17:41:09.776Z,3.80
2023-04-15T17:43:41.283Z,3.70
2023-04-15T17:46:12.962Z,3.40
2023-04-15T17:48:41.724Z,3.90
2023-04-15T17:51:11.016Z,3.80
2023-04-15T17:53:40.132Z,3.60
2023-04-15T17:56:08.810Z,3.70
2023-04-15T17:58:39.547Z,4.20
2023-04-15T18:01:08.966Z,3.40
2023-04-15T18:03:41.681Z,3.30
2023-04-15T18:06:14.809Z,2.80
2023-04-15T18:08:45.649Z,3.10
2023-04-15T18:11:16.380Z,3.60
2023-04-15T18:13:46.630Z,4.00
2023-04-15T18:16:16.880Z,2.80
2023-04-15T18:18:45.930Z,4.10
2023-04-15T18:21:17.588Z,3.20
2023-04-15T18:23:47.205Z,3.40
2023-04-15T18:26:16.304Z,3.60
2023-04-15T18:28:46.545Z,3.70
2023-04-15T18:31:15.030Z,4.00
2023-04-15T18:33:43.898Z,4.10
2023-04-15T18:36:14.614Z,2.90
2023-04-15T18:38:49.037Z,3.60
2023-04-15T18:43:47.767Z,3.70
2023-04-15T18:46:19.320Z,4.40
2023-04-15T18:48:48.396Z,4.10
2023-04-15T18:51:20.140Z,5.10
2023-04-15T18:53:48.739Z,3.80
2023-04-15T18:56:17.828Z,4.00
2023-04-15T18:59:26.052Z,3.30
2023-04-15T19:01:38.634Z,4.60
2023-04-15T19:04:08.312Z,4.20
2023-04-15T19:06:39.712Z,3.30
2023-04-15T19:09:07.898Z,2.50
2023-04-15T19:11:38.064Z,3.70
2023-04-15T19:14:11.197Z,3.20
2023-04-15T19:16:44.226Z,4.30
2023-04-15T19:19:15.264Z,3.30
2023-04-15T19:21:45.644Z,3.60
2023-04-15T19:24:14.152Z,2.80
2023-04-15T19:26:49.722Z,3.60
2023-04-15T19:29:19.818Z,2.60
2023-04-15T19:31:49.147Z,3.20
2023-04-15T19:34:17.997Z,2.90
2023-04-15T19:36:47.198Z,2.80
2023-04-15T19:39:16.083Z,3.10
2023-04-15T19:41:46.714Z,3.80
2023-04-15T19:44:16.245Z,3.00
2023-04-15T19:46:50.225Z,3.10
2023-04-15T19:49:20.063Z,3.10
2023-04-15T19:51:52.643Z,2.60
2023-04-15T19:54:23.497Z,3.80
2023-04-15T19:56:54.631Z,3.10
2023-04-15T19:59:24.734Z,3.30
2023-04-15T20:01:54.038Z,3.20
2023-04-15T20:04:22.907Z,2.80
2023-04-15T20:06:52.539Z,2.50
2023-04-15T20:09:23.943Z,2.20
2023-04-15T20:12:48.059Z,3.90
2023-04-15T20:14:42.439Z,3.40
2023-04-15T20:17:11.364Z,3.10
2023-04-15T20:19:42.608Z,3.70
2023-04-15T20:22:11.795Z,2.80
2023-04-15T20:24:40.466Z,3.80
2023-04-15T20:27:08.734Z,3.00
2023-04-15T20:29:38.879Z,3.70
2023-04-15T20:32:11.711Z,3.10
2023-04-15T20:34:43.087Z,4.00
2023-04-15T20:37:13.657Z,4.00
2023-04-15T20:39:43.687Z,4.40
2023-04-15T20:42:12.126Z,5.00
2023-04-15T20:44:42.426Z,5.20
2023-04-15T20:47:11.354Z,5.60
2023-04-15T20:49:40.533Z,6.60
2023-04-15T20:52:09.600Z,5.80
2023-04-15T20:54:40.381Z,7.90
2023-04-15T20:57:11.903Z,5.90
2023-04-15T20:59:45.371Z,7.70
2023-04-15T21:02:15.222Z,5.30
2023-04-15T21:04:43.813Z,4.90
2023-04-15T21:07:12.546Z,6.30
2023-04-15T21:09:43.243Z,5.60
2023-04-15T21:12:11.760Z,5.70
2023-04-15T21:14:41.052Z,5.10
2023-04-15T21:17:11.220Z,4.60
2023-04-15T21:19:41.110Z,5.20
2023-04-15T21:22:10.671Z,4.80
2023-04-15T21:24:43.580Z,5.00
2023-04-15T21:27:13.042Z,4.70
2023-04-15T21:29:41.635Z,5.40
2023-04-15T21:32:12.442Z,5.10
2023-04-15T21:34:41.090Z,5.60
2023-04-15T21:37:09.452Z,5.40
2023-04-15T21:39:37.508Z,4.80
2023-04-15T21:42:07.851Z,4.80
2023-04-15T21:44:37.980Z,4.90
2023-04-15T21:47:07.676Z,5.10
2023-04-15T21:49:38.970Z,4.70
2023-04-15T21:52:12.591Z,5.40
2023-04-15T21:54:42.687Z,5.10
2023-04-15T21:57:12.869Z,4.60
2023-04-15T21:59:44.338Z,4.30
2023-04-15T22:02:15.617Z,4.30
2023-04-15T22:04:47.014Z,5.20
2023-04-15T22:07:16.810Z,4.10
2023-04-15T22:09:46.906Z,4.50
2023-04-15T22:12:17.208Z,5.00
2023-04-15T22:14:49.013Z,4.10
2023-04-15T22:17:18.637Z,4.80
2023-04-15T22:19:49.059Z,5.30
2023-04-15T22:22:19.036Z,5.00
2023-04-15T22:24:50.428Z,4.30
2023-04-15T22:27:19.408Z,5.00
2023-04-15T22:29:48.946Z,3.90
2023-04-15T22:32:20.308Z,4.80
2023-04-15T22:34:49.581Z,5.00
2023-04-15T22:37:18.352Z,4.60
2023-04-15T22:39:46.629Z,4.90
2023-04-15T22:42:14.735Z,3.80
2023-04-15T22:44:45.049Z,5.00
2023-04-15T22:47:16.353Z,5.10
2023-04-15T22:49:45.920Z,4.50
2023-04-15T22:52:29.407Z,4.30
2023-04-15T22:55:02.417Z,4.60
2023-04-15T22:57:32.987Z,4.00
2023-04-15T23:00:04.465Z,3.00
2023-04-15T23:02:35.400Z,4.30
2023-04-15T23:05:12.652Z,3.80
2023-04-15T23:07:47.496Z,4.50
2023-04-15T23:10:15.933Z,4.00
2023-04-15T23:12:45.743Z,4.20
2023-04-15T23:15:17.047Z,3.40
2023-04-15T23:17:46.912Z,2.80
2023-04-15T23:20:18.927Z,3.80
2023-04-15T23:22:50.027Z,3.60
2023-04-15T23:25:22.786Z,3.00
2023-04-15T23:27:52.504Z,3.10
2023-04-15T23:30:22.512Z,3.20
2023-04-15T23:32:51.312Z,3.30
2023-04-15T23:35:19.891Z,2.70
2023-04-15T23:37:50.277Z,3.90
2023-04-15T23:40:20.573Z,3.60
2023-04-15T23:42:50.771Z,4.70
2023-04-15T23:45:19.577Z,2.80
2023-04-15T23:47:49.962Z,3.20
2023-04-15T23:50:22.090Z,3.20
2023-04-15T23:52:52.403Z,5.10
2023-04-15T23:55:23.070Z,3.40
2023-04-15T23:57:52.950Z,4.60
